sensor_id;sensor_type;location;lat;lon;timestamp;pressure;altitude;pressure_sealevel;temperature;humidity
71126;BME280;58785;55.566;38.058;2022-08-21T00:01:16;101191.22;;;15.79;57.00
71126;BME280;58785;55.566;38.058;2022-08-21T00:03:42;101193.91;;;15.79;56.93
71126;BME280;58785;55.566;38.058;2022-08-21T00:06:08;101180.63;;;15.77;56.65
71126;BME280;58785;55.566;38.058;2022-08-21T00:08:33;101185.00;;;15.78;56.34
71126;BME280;58785;55.566;38.058;2022-08-21T00:10:59;101189.75;;;15.85;56.41
71126;BME280;58785;55.566;38.058;2022-08-21T00:13:25;101196.00;;;15.85;56.24
71126;BME280;58785;55.566;38.058;2022-08-21T00:15:51;101190.28;;;15.88;56.20
71126;BME280;58785;55.566;38.058;2022-08-21T00:18:16;101188.91;;;15.84;56.03
71126;BME280;58785;55.566;38.058;2022-08-21T00:20:44;101191.13;;;15.89;55.79
71126;BME280;58785;55.566;38.058;2022-08-21T00:23:10;101186.22;;;15.84;56.19
71126;BME280;58785;55.566;38.058;2022-08-21T00:25:37;101189.59;;;15.86;56.13
71126;BME280;58785;55.566;38.058;2022-08-21T00:28:03;101186.34;;;15.82;55.97
71126;BME280;58785;55.566;38.058;2022-08-21T00:30:29;101191.44;;;15.86;55.86
71126;BME280;58785;55.566;38.058;2022-08-21T00:32:56;101193.28;;;15.85;56.02
71126;BME280;58785;55.566;38.058;2022-08-21T00:35:27;101178.59;;;15.79;56.12
71126;BME280;58785;55.566;38.058;2022-08-21T00:37:52;101179.09;;;15.75;56.15
71126;BME280;58785;55.566;38.058;2022-08-21T00:40:25;101190.84;;;15.74;56.34
71126;BME280;58785;55.566;38.058;2022-08-21T00:42:51;101180.84;;;15.66;56.46
71126;BME280;58785;55.566;38.058;2022-08-21T00:45:17;101178.63;;;15.62;57.18
71126;BME280;58785;55.566;38.058;2022-08-21T00:47:42;101186.84;;;15.60;56.42
71126;BME280;58785;55.566;38.058;2022-08-21T00:50:10;101178.38;;;15.55;56.62
71126;BME280;58785;55.566;38.058;2022-08-21T00:52:37;101185.44;;;15.56;57.00
71126;BME280;58785;55.566;38.058;2022-08-21T00:55:07;101176.97;;;15.51;57.19
71126;BME280;58785;55.566;38.058;2022-08-21T00:57:39;101183.91;;;15.53;56.71
71126;BME280;58785;55.566;38.058;2022-08-21T01:00:09;101183.34;;;15.50;56.81
71126;BME280;58785;55.566;38.058;2022-08-21T01:02:35;101190.13;;;15.54;57.03
71126;BME280;58785;55.566;38.058;2022-08-21T01:05:00;101187.13;;;15.57;56.76
71126;BME280;58785;55.566;38.058;2022-08-21T01:07:26;101193.75;;;15.63;56.69
71126;BME280;58785;55.566;38.058;2022-08-21T01:09:52;101189.78;;;15.67;56.10
71126;BME280;58785;55.566;38.058;2022-08-21T01:12:17;101199.75;;;15.74;55.99
71126;BME280;58785;55.566;38.058;2022-08-21T01:14:44;101183.75;;;15.73;56.14
71126;BME280;58785;55.566;38.058;2022-08-21T01:17:11;101201.06;;;15.88;55.65
71126;BME280;58785;55.566;38.058;2022-08-21T01:19:39;101189.97;;;15.91;55.37
71126;BME280;58785;55.566;38.058;2022-08-21T01:22:04;101180.91;;;15.92;55.44
71126;BME280;58785;55.566;38.058;2022-08-21T01:24:30;101179.59;;;15.96;55.44
71126;BME280;58785;55.566;38.058;2022-08-21T01:26:58;101188.50;;;15.97;55.35
71126;BME280;58785;55.566;38.058;2022-08-21T01:29:38;101188.50;;;15.97;55.40
71126;BME280;58785;55.566;38.058;2022-08-21T01:32:13;101184.81;;;15.98;55.84
71126;BME280;58785;55.566;38.058;2022-08-21T01:34:44;101183.28;;;15.95;55.30
71126;BME280;58785;55.566;38.058;2022-08-21T01:37:11;101188.50;;;15.97;55.32
71126;BME280;58785;55.566;38.058;2022-08-21T01:39:37;101175.69;;;15.91;55.21
71126;BME280;58785;55.566;38.058;2022-08-21T01:42:04;101184.97;;;15.96;55.50
71126;BME280;58785;55.566;38.058;2022-08-21T01:44:30;101177.19;;;15.93;55.47
71126;BME280;58785;55.566;38.058;2022-08-21T01:46:58;101195.75;;;15.96;55.12
71126;BME280;58785;55.566;38.058;2022-08-21T01:49:24;101192.50;;;15.93;55.33
71126;BME280;58785;55.566;38.058;2022-08-21T01:51:50;101187.91;;;15.85;55.36
71126;BME280;58785;55.566;38.058;2022-08-21T01:54:16;101188.75;;;15.86;55.81
71126;BME280;58785;55.566;38.058;2022-08-21T01:56:46;101191.22;;;15.79;55.48
71126;BME280;58785;55.566;38.058;2022-08-21T01:59:12;101194.59;;;15.81;55.72
71126;BME280;58785;55.566;38.058;2022-08-21T02:01:38;101192.53;;;15.75;55.93
71126;BME280;58785;55.566;38.058;2022-08-21T02:04:08;101199.28;;;15.79;55.61
71126;BME280;58785;55.566;38.058;2022-08-21T02:06:34;101195.06;;;15.76;55.60
71126;BME280;58785;55.566;38.058;2022-08-21T02:09:01;101195.38;;;15.73;55.85
71126;BME280;58785;55.566;38.058;2022-08-21T02:11:28;101198.91;;;15.74;55.71
71126;BME280;58785;55.566;38.058;2022-08-21T02:13:53;101198.59;;;15.77;55.76
71126;BME280;58785;55.566;38.058;2022-08-21T02:16:19;101193.66;;;15.72;55.94
71126;BME280;58785;55.566;38.058;2022-08-21T02:18:44;101190.97;;;15.72;55.97
71126;BME280;58785;55.566;38.058;2022-08-21T02:21:10;101196.50;;;15.71;56.05
71126;BME280;58785;55.566;38.058;2022-08-21T02:23:36;101185.38;;;15.66;56.06
71126;BME280;58785;55.566;38.058;2022-08-21T02:26:03;101198.19;;;15.72;56.02
71126;BME280;58785;55.566;38.058;2022-08-21T02:28:29;101201.59;;;15.74;55.64
71126;BME280;58785;55.566;38.058;2022-08-21T02:30:55;101199.88;;;15.73;55.82
71126;BME280;58785;55.566;38.058;2022-08-21T02:33:22;101196.22;;;15.74;55.43
71126;BME280;58785;55.566;38.058;2022-08-21T02:35:49;101209.44;;;15.85;55.43
71126;BME280;58785;55.566;38.058;2022-08-21T02:38:36;101210.13;;;15.87;55.58
71126;BME280;58785;55.566;38.058;2022-08-21T02:41:08;101199.53;;;15.86;55.39
71126;BME280;58785;55.566;38.058;2022-08-21T02:43:34;101203.13;;;15.94;55.51
71126;BME280;58785;55.566;38.058;2022-08-21T02:46:00;101195.59;;;15.98;55.17
71126;BME280;58785;55.566;38.058;2022-08-21T02:48:28;101208.56;;;16.02;55.17
71126;BME280;58785;55.566;38.058;2022-08-21T02:51:00;101207.31;;;16.15;55.04
71126;BME280;58785;55.566;38.058;2022-08-21T02:53:27;101195.22;;;16.19;55.00
71126;BME280;58785;55.566;38.058;2022-08-21T02:55:53;101197.59;;;16.22;54.59
71126;BME280;58785;55.566;38.058;2022-08-21T02:58:26;101201.59;;;16.35;54.40
71126;BME280;58785;55.566;38.058;2022-08-21T03:00:55;101195.53;;;16.42;54.23
71126;BME280;58785;55.566;38.058;2022-08-21T03:03:23;101210.13;;;16.57;53.98
71126;BME280;58785;55.566;38.058;2022-08-21T03:05:50;101207.41;;;16.75;53.71
71126;BME280;58785;55.566;38.058;2022-08-21T03:08:16;101206.78;;;16.89;53.71
71126;BME280;58785;55.566;38.058;2022-08-21T03:10:46;101207.88;;;17.04;53.38
71126;BME280;58785;55.566;38.058;2022-08-21T03:13:12;101196.78;;;17.15;53.11
71126;BME280;58785;55.566;38.058;2022-08-21T03:15:39;101199.00;;;17.28;52.90
71126;BME280;58785;55.566;38.058;2022-08-21T03:18:09;101204.13;;;17.47;52.74
71126;BME280;58785;55.566;38.058;2022-08-21T03:20:37;101199.25;;;17.59;52.35
71126;BME280;58785;55.566;38.058;2022-08-21T03:23:04;101199.47;;;17.74;52.26
71126;BME280;58785;55.566;38.058;2022-08-21T03:25:32;101196.28;;;17.87;52.07
71126;BME280;58785;55.566;38.058;2022-08-21T03:28:06;101216.34;;;18.08;51.61
71126;BME280;58785;55.566;38.058;2022-08-21T03:30:32;101221.75;;;18.17;51.52
71126;BME280;58785;55.566;38.058;2022-08-21T03:32:58;101209.75;;;18.19;51.44
71126;BME280;58785;55.566;38.058;2022-08-21T03:35:25;101213.47;;;18.34;50.99
71126;BME280;58785;55.566;38.058;2022-08-21T03:37:51;101209.88;;;18.42;50.71
71126;BME280;58785;55.566;38.058;2022-08-21T03:40:18;101214.25;;;18.51;50.45
71126;BME280;58785;55.566;38.058;2022-08-21T03:42:45;101218.63;;;18.52;50.42
71126;BME280;58785;55.566;38.058;2022-08-21T03:45:13;101226.25;;;18.57;50.41
71126;BME280;58785;55.566;38.058;2022-08-21T03:47:38;101215.56;;;18.63;50.24
71126;BME280;58785;55.566;38.058;2022-08-21T03:50:04;101218.47;;;18.70;50.19
71126;BME280;58785;55.566;38.058;2022-08-21T03:52:30;101226.72;;;18.77;50.01
71126;BME280;58785;55.566;38.058;2022-08-21T03:54:56;101212.03;;;18.79;50.08
71126;BME280;58785;55.566;38.058;2022-08-21T03:57:21;101224.47;;;18.97;49.75
71126;BME280;58785;55.566;38.058;2022-08-21T03:59:47;101219.88;;;19.05;49.64
71126;BME280;58785;55.566;38.058;2022-08-21T04:02:16;101207.66;;;19.17;49.62
71126;BME280;58785;55.566;38.058;2022-08-21T04:04:44;101213.09;;;19.40;49.05
71126;BME280;58785;55.566;38.058;2022-08-21T04:07:10;101220.78;;;19.51;48.74
71126;BME280;58785;55.566;38.058;2022-08-21T04:09:36;101222.97;;;19.64;48.44
71126;BME280;58785;55.566;38.058;2022-08-21T04:12:01;101211.59;;;19.69;48.19
71126;BME280;58785;55.566;38.058;2022-08-21T04:14:28;101211.59;;;19.69;48.30
71126;BME280;58785;55.566;38.058;2022-08-21T04:16:55;101218.53;;;19.63;48.14
71126;BME280;58785;55.566;38.058;2022-08-21T04:19:21;101209.78;;;19.53;48.56
71126;BME280;58785;55.566;38.058;2022-08-21T04:21:46;101214.06;;;19.47;48.80
71126;BME280;58785;55.566;38.058;2022-08-21T04:24:12;101218.94;;;19.52;48.67
71126;BME280;58785;55.566;38.058;2022-08-21T04:26:38;101209.63;;;19.55;48.46
71126;BME280;58785;55.566;38.058;2022-08-21T04:29:05;101217.91;;;19.61;48.48
71126;BME280;58785;55.566;38.058;2022-08-21T04:31:32;101224.81;;;19.64;48.37
71126;BME280;58785;55.566;38.058;2022-08-21T04:33:59;101218.06;;;19.60;48.72
71126;BME280;58785;55.566;38.058;2022-08-21T04:36:25;101210.63;;;19.62;48.10
71126;BME280;58785;55.566;38.058;2022-08-21T04:38:50;101219.91;;;19.67;48.50
71126;BME280;58785;55.566;38.058;2022-08-21T04:41:16;101211.41;;;19.70;48.36
71126;BME280;58785;55.566;38.058;2022-08-21T04:43:42;101210.88;;;19.75;47.90
71126;BME280;58785;55.566;38.058;2022-08-21T04:46:08;101218.44;;;19.79;48.21
71126;BME280;58785;55.566;38.058;2022-08-21T04:48:34;101219.09;;;19.81;47.84
71126;BME280;58785;55.566;38.058;2022-08-21T04:51:13;101220.72;;;19.91;47.66
71126;BME280;58785;55.566;38.058;2022-08-21T04:53:44;101225.66;;;20.10;47.68
71126;BME280;58785;55.566;38.058;2022-08-21T04:56:23;101217.78;;;20.38;47.38
71126;BME280;58785;55.566;38.058;2022-08-21T04:58:52;101215.66;;;20.63;46.97
71126;BME280;58785;55.566;38.058;2022-08-21T05:01:22;101208.31;;;20.86;46.44
71126;BME280;58785;55.566;38.058;2022-08-21T05:03:57;101213.88;;;21.14;45.89
71126;BME280;58785;55.566;38.058;2022-08-21T05:06:24;101215.66;;;21.37;45.68
71126;BME280;58785;55.566;38.058;2022-08-21T05:08:51;101215.03;;;21.56;45.52
71126;BME280;58785;55.566;38.058;2022-08-21T05:11:18;101218.81;;;21.76;45.39
71126;BME280;58785;55.566;38.058;2022-08-21T05:13:45;101219.13;;;21.88;45.03
71126;BME280;58785;55.566;38.058;2022-08-21T05:16:11;101211.69;;;21.97;44.93
71126;BME280;58785;55.566;38.058;2022-08-21T05:18:37;101208.91;;;22.12;44.24
71126;BME280;58785;55.566;38.058;2022-08-21T05:21:05;101206.47;;;22.23;43.94
71126;BME280;58785;55.566;38.058;2022-08-21T05:23:31;101201.75;;;22.32;44.05
71126;BME280;58785;55.566;38.058;2022-08-21T05:25:56;101211.69;;;22.46;43.58
71126;BME280;58785;55.566;38.058;2022-08-21T05:28:22;101202.78;;;22.59;43.25
71126;BME280;58785;55.566;38.058;2022-08-21T05:30:49;101207.38;;;22.86;42.71
71126;BME280;58785;55.566;38.058;2022-08-21T05:33:14;101203.25;;;22.97;42.60
71126;BME280;58785;55.566;38.058;2022-08-21T05:35:41;101203.28;;;23.10;41.93
71126;BME280;58785;55.566;38.058;2022-08-21T05:38:06;101196.22;;;23.22;41.88
71126;BME280;58785;55.566;38.058;2022-08-21T05:40:32;101193.94;;;23.26;41.52
71126;BME280;58785;55.566;38.058;2022-08-21T05:42:59;101193.25;;;23.11;41.57
71126;BME280;58785;55.566;38.058;2022-08-21T05:45:28;101193.25;;;23.11;41.70
71126;BME280;58785;55.566;38.058;2022-08-21T05:47:55;101204.63;;;23.34;41.34
71126;BME280;58785;55.566;38.058;2022-08-21T05:50:21;101201.13;;;23.47;40.42
71126;BME280;58785;55.566;38.058;2022-08-21T05:52:47;101199.50;;;23.59;40.09
71126;BME280;58785;55.566;38.058;2022-08-21T05:55:13;101194.06;;;23.59;39.62
71126;BME280;58785;55.566;38.058;2022-08-21T05:57:39;101208.09;;;23.69;39.74
71126;BME280;58785;55.566;38.058;2022-08-21T06:00:10;101205.41;;;23.76;39.49
71126;BME280;58785;55.566;38.058;2022-08-21T06:02:38;101207.72;;;23.79;39.72
71126;BME280;58785;55.566;38.058;2022-08-21T06:05:04;101207.31;;;23.89;39.77
71126;BME280;58785;55.566;38.058;2022-08-21T06:07:30;101201.00;;;23.95;39.18
71126;BME280;58785;55.566;38.058;2022-08-21T06:09:56;101193.25;;;23.92;38.82
71126;BME280;58785;55.566;38.058;2022-08-21T06:12:22;101186.53;;;23.94;38.79
71126;BME280;58785;55.566;38.058;2022-08-21T06:14:48;101190.31;;;24.13;39.00
71126;BME280;58785;55.566;38.058;2022-08-21T06:17:16;101174.81;;;24.20;39.40
71126;BME280;58785;55.566;38.058;2022-08-21T06:19:41;101184.06;;;24.39;38.89
71126;BME280;58785;55.566;38.058;2022-08-21T06:22:07;101183.22;;;24.45;38.59
71126;BME280;58785;55.566;38.058;2022-08-21T06:24:33;101184.63;;;24.68;38.17
71126;BME280;58785;55.566;38.058;2022-08-21T06:27:04;101178.50;;;24.85;37.78
71126;BME280;58785;55.566;38.058;2022-08-21T06:29:30;101183.06;;;24.91;37.55
71126;BME280;58785;55.566;38.058;2022-08-21T06:31:56;101176.16;;;24.89;37.41
71126;BME280;58785;55.566;38.058;2022-08-21T06:34:22;101180.53;;;24.97;37.16
71126;BME280;58785;55.566;38.058;2022-08-21T06:36:47;101171.53;;;24.96;36.83
71126;BME280;58785;55.566;38.058;2022-08-21T06:39:13;101167.31;;;24.93;37.07
71126;BME280;58785;55.566;38.058;2022-08-21T06:41:39;101175.72;;;24.92;36.89
71126;BME280;58785;55.566;38.058;2022-08-21T06:44:04;101175.69;;;24.99;36.84
71126;BME280;58785;55.566;38.058;2022-08-21T06:46:30;101180.72;;;25.08;36.18
71126;BME280;58785;55.566;38.058;2022-08-21T06:48:57;101173.59;;;25.07;36.22
71126;BME280;58785;55.566;38.058;2022-08-21T06:51:23;101179.69;;;25.09;36.33
71126;BME280;58785;55.566;38.058;2022-08-21T06:53:51;101180.03;;;25.19;35.99
71126;BME280;58785;55.566;38.058;2022-08-21T06:56:17;101186.88;;;25.35;36.11
71126;BME280;58785;55.566;38.058;2022-08-21T06:58:43;101182.69;;;25.33;35.01
71126;BME280;58785;55.566;38.058;2022-08-21T07:01:09;101176.41;;;25.32;35.23
71126;BME280;58785;55.566;38.058;2022-08-21T07:03:41;101173.44;;;25.34;34.95
71126;BME280;58785;55.566;38.058;2022-08-21T07:06:08;101176.16;;;25.40;34.96
71126;BME280;58785;55.566;38.058;2022-08-21T07:08:34;101180.78;;;25.40;34.84
71126;BME280;58785;55.566;38.058;2022-08-21T07:11:03;101174.94;;;25.36;34.37
71126;BME280;58785;55.566;38.058;2022-08-21T07:13:29;101164.63;;;25.38;34.34
71126;BME280;58785;55.566;38.058;2022-08-21T07:15:55;101162.53;;;25.34;33.83
71126;BME280;58785;55.566;38.058;2022-08-21T07:18:21;101161.69;;;25.33;34.30
71126;BME280;58785;55.566;38.058;2022-08-21T07:20:47;101170.47;;;25.42;33.77
71126;BME280;58785;55.566;38.058;2022-08-21T07:23:32;101159.50;;;25.48;33.74
71126;BME280;58785;55.566;38.058;2022-08-21T07:25:58;101160.66;;;25.66;34.19
71126;BME280;58785;55.566;38.058;2022-08-21T07:28:28;101170.00;;;25.83;34.37
71126;BME280;58785;55.566;38.058;2022-08-21T07:30:56;101149.72;;;25.97;33.85
71126;BME280;58785;55.566;38.058;2022-08-21T07:33:23;101159.31;;;26.06;33.21
71126;BME280;58785;55.566;38.058;2022-08-21T07:35:48;101153.72;;;26.20;33.86
71126;BME280;58785;55.566;38.058;2022-08-21T07:38:14;101156.59;;;26.25;33.45
71126;BME280;58785;55.566;38.058;2022-08-21T07:40:40;101153.66;;;26.26;33.66
71126;BME280;58785;55.566;38.058;2022-08-21T07:43:06;101156.53;;;26.31;33.34
71126;BME280;58785;55.566;38.058;2022-08-21T07:45:32;101148.06;;;26.40;33.19
71126;BME280;58785;55.566;38.058;2022-08-21T07:47:58;101149.06;;;26.45;32.69
71126;BME280;58785;55.566;38.058;2022-08-21T07:50:24;101139.19;;;26.44;32.41
71126;BME280;58785;55.566;38.058;2022-08-21T07:52:50;101137.22;;;26.51;32.10
71126;BME280;58785;55.566;38.058;2022-08-21T07:55:18;101156.97;;;26.53;32.52
71126;BME280;58785;55.566;38.058;2022-08-21T07:57:45;101132.81;;;26.50;32.27
71126;BME280;58785;55.566;38.058;2022-08-21T08:00:15;101139.88;;;26.58;32.14
71126;BME280;58785;55.566;38.058;2022-08-21T08:02:44;101134.25;;;26.53;31.83
71126;BME280;58785;55.566;38.058;2022-08-21T08:05:11;101129.84;;;26.52;31.62
71126;BME280;58785;55.566;38.058;2022-08-21T08:07:37;101130.00;;;26.39;32.02
71126;BME280;58785;55.566;38.058;2022-08-21T08:10:04;101125.13;;;26.41;32.63
71126;BME280;58785;55.566;38.058;2022-08-21T08:12:38;101125.34;;;26.39;32.15
71126;BME280;58785;55.566;38.058;2022-08-21T08:15:09;101116.72;;;26.35;31.80
71126;BME280;58785;55.566;38.058;2022-08-21T08:17:37;101118.97;;;26.45;31.98
71126;BME280;58785;55.566;38.058;2022-08-21T08:20:05;101118.97;;;26.45;31.93
71126;BME280;58785;55.566;38.058;2022-08-21T08:22:32;101109.63;;;26.53;31.81
71126;BME280;58785;55.566;38.058;2022-08-21T08:24:58;101099.56;;;26.65;31.44
71126;BME280;58785;55.566;38.058;2022-08-21T08:27:25;101107.34;;;26.68;31.42
71126;BME280;58785;55.566;38.058;2022-08-21T08:29:51;101088.66;;;26.47;31.16
71126;BME280;58785;55.566;38.058;2022-08-21T08:32:17;101093.41;;;26.33;31.14
71126;BME280;58785;55.566;38.058;2022-08-21T08:34:43;101096.09;;;26.40;31.38
71126;BME280;58785;55.566;38.058;2022-08-21T08:37:10;101085.41;;;26.56;31.48
71126;BME280;58785;55.566;38.058;2022-08-21T08:39:36;101086.88;;;26.71;31.08
71126;BME280;58785;55.566;38.058;2022-08-21T08:42:08;101091.91;;;26.74;30.98
71126;BME280;58785;55.566;38.058;2022-08-21T08:44:43;101085.00;;;26.71;31.06
71126;BME280;58785;55.566;38.058;2022-08-21T08:47:13;101087.06;;;26.76;30.43
71126;BME280;58785;55.566;38.058;2022-08-21T08:52:41;101077.63;;;27.02;29.78
71126;BME280;58785;55.566;38.058;2022-08-21T08:55:10;101091.94;;;27.04;30.00
71126;BME280;58785;55.566;38.058;2022-08-21T08:57:37;101103.97;;;27.03;30.52
71126;BME280;58785;55.566;38.058;2022-08-21T09:00:12;101096.34;;;27.05;29.55
71126;BME280;58785;55.566;38.058;2022-08-21T09:02:39;101095.75;;;27.03;30.03
71126;BME280;58785;55.566;38.058;2022-08-21T09:05:21;101100.91;;;26.92;30.33
71126;BME280;58785;55.566;38.058;2022-08-21T09:07:53;101098.19;;;26.74;30.72
71126;BME280;58785;55.566;38.058;2022-08-21T09:10:48;101093.91;;;26.67;30.90
71126;BME280;58785;55.566;38.058;2022-08-21T09:21:31;101088.09;;;26.75;29.38
71126;BME280;58785;55.566;38.058;2022-08-21T09:26:27;101094.22;;;26.58;29.73
71126;BME280;58785;55.566;38.058;2022-08-21T09:28:58;101084.75;;;26.54;29.63
71126;BME280;58785;55.566;38.058;2022-08-21T09:31:27;101083.63;;;26.62;29.32
71126;BME280;58785;55.566;38.058;2022-08-21T09:34:01;101085.69;;;26.67;29.70
71126;BME280;58785;55.566;38.058;2022-08-21T09:36:42;101088.31;;;26.73;29.27
71126;BME280;58785;55.566;38.058;2022-08-21T09:39:10;101076.47;;;26.79;29.32
71126;BME280;58785;55.566;38.058;2022-08-21T09:41:37;101085.63;;;27.03;29.75
71126;BME280;58785;55.566;38.058;2022-08-21T09:44:06;101083.91;;;27.20;29.38
71126;BME280;58785;55.566;38.058;2022-08-21T09:46:33;101084.66;;;27.28;29.54
71126;BME280;58785;55.566;38.058;2022-08-21T09:49:01;101083.63;;;27.40;29.69
71126;BME280;58785;55.566;38.058;2022-08-21T09:51:31;101091.00;;;27.40;28.74
71126;BME280;58785;55.566;38.058;2022-08-21T09:56:51;101087.06;;;27.36;29.11
71126;BME280;58785;55.566;38.058;2022-08-21T09:59:37;101087.50;;;27.21;28.80
71126;BME280;58785;55.566;38.058;2022-08-21T10:02:24;101089.72;;;27.12;28.47
71126;BME280;58785;55.566;38.058;2022-08-21T10:04:52;101095.31;;;27.06;29.04
71126;BME280;58785;55.566;38.058;2022-08-21T10:07:21;101087.94;;;27.06;28.82
71126;BME280;58785;55.566;38.058;2022-08-21T10:10:07;101087.09;;;27.06;29.06
71126;BME280;58785;55.566;38.058;2022-08-21T10:15:18;101086.22;;;27.05;29.42
71126;BME280;58785;55.566;38.058;2022-08-21T10:18:04;101074.13;;;26.94;29.05
71126;BME280;58785;55.566;38.058;2022-08-21T10:20:58;101075.69;;;26.90;29.62
71126;BME280;58785;55.566;38.058;2022-08-21T10:29:07;101057.16;;;26.74;29.61
71126;BME280;58785;55.566;38.058;2022-08-21T10:39:34;101052.69;;;26.61;29.51
71126;BME280;58785;55.566;38.058;2022-08-21T10:42:33;101052.78;;;26.55;30.05
71126;BME280;58785;55.566;38.058;2022-08-21T10:55:51;101047.97;;;26.32;30.46
71126;BME280;58785;55.566;38.058;2022-08-21T10:58:27;101045.25;;;26.32;30.52
71126;BME280;58785;55.566;38.058;2022-08-21T11:01:24;101044.38;;;26.38;30.60
71126;BME280;58785;55.566;38.058;2022-08-21T11:04:28;101042.88;;;26.35;30.80
71126;BME280;58785;55.566;38.058;2022-08-21T11:07:03;101038.69;;;26.33;30.65
71126;BME280;58785;55.566;38.058;2022-08-21T11:09:31;101039.41;;;26.28;31.17
71126;BME280;58785;55.566;38.058;2022-08-21T11:14:48;101032.78;;;26.18;30.72
71126;BME280;58785;55.566;38.058;2022-08-21T11:17:22;101036.19;;;26.13;30.75
71126;BME280;58785;55.566;38.058;2022-08-21T11:20:05;101034.16;;;26.08;30.88
71126;BME280;58785;55.566;38.058;2022-08-21T11:25:03;101035.59;;;26.11;30.41
71126;BME280;58785;55.566;38.058;2022-08-21T11:30:07;101030.06;;;25.99;31.03
71126;BME280;58785;55.566;38.058;2022-08-21T11:40:43;101050.53;;;25.90;31.24
71126;BME280;58785;55.566;38.058;2022-08-21T11:51:51;101040.00;;;25.69;31.18
71126;BME280;58785;55.566;38.058;2022-08-21T11:54:26;101041.06;;;25.68;31.32
71126;BME280;58785;55.566;38.058;2022-08-21T11:57:03;101032.69;;;25.63;31.38
71126;BME280;58785;55.566;38.058;2022-08-21T11:59:38;101033.69;;;25.68;31.43
71126;BME280;58785;55.566;38.058;2022-08-21T12:02:11;101034.34;;;25.70;31.84
71126;BME280;58785;55.566;38.058;2022-08-21T12:04:48;101033.03;;;25.73;32.11
71126;BME280;58785;55.566;38.058;2022-08-21T12:07:28;101019.97;;;25.75;31.95
71126;BME280;58785;55.566;38.058;2022-08-21T12:09:56;101027.28;;;25.81;31.59
71126;BME280;58785;55.566;38.058;2022-08-21T12:14:50;101028.72;;;25.84;31.85
71126;BME280;58785;55.566;38.058;2022-08-21T12:17:20;101029.97;;;25.88;31.83
71126;BME280;58785;55.566;38.058;2022-08-21T12:20:01;101023.91;;;25.86;32.09
71126;BME280;58785;55.566;38.058;2022-08-21T12:22:39;101025.72;;;25.92;31.16
71126;BME280;58785;55.566;38.058;2022-08-21T12:25:11;101022.91;;;25.98;31.52
71126;BME280;58785;55.566;38.058;2022-08-21T12:32:59;101022.75;;;26.30;32.00
71126;BME280;58785;55.566;38.058;2022-08-21T12:35:31;101009.88;;;26.37;32.01
71126;BME280;58785;55.566;38.058;2022-08-21T12:40:46;101012.63;;;26.37;31.97
71126;BME280;58785;55.566;38.058;2022-08-21T12:43:21;101024.44;;;26.31;31.59
71126;BME280;58785;55.566;38.058;2022-08-21T12:45:51;101008.91;;;26.25;31.76
71126;BME280;58785;55.566;38.058;2022-08-21T12:48:28;101012.59;;;26.19;32.04
71126;BME280;58785;55.566;38.058;2022-08-21T12:51:15;101016.22;;;26.13;32.14
71126;BME280;58785;55.566;38.058;2022-08-21T12:53:48;101014.56;;;26.12;31.81
71126;BME280;58785;55.566;38.058;2022-08-21T12:56:19;101018.00;;;26.07;32.29
71126;BME280;58785;55.566;38.058;2022-08-21T12:58:48;101021.97;;;26.04;32.03
71126;BME280;58785;55.566;38.058;2022-08-21T13:03:40;101012.75;;;26.05;32.42
71126;BME280;58785;55.566;38.058;2022-08-21T13:06:15;101003.91;;;26.03;31.79
71126;BME280;58785;55.566;38.058;2022-08-21T13:08:43;101005.97;;;26.08;31.83
71126;BME280;58785;55.566;38.058;2022-08-21T13:11:11;101008.13;;;26.06;31.86
71126;BME280;58785;55.566;38.058;2022-08-21T13:13:40;101007.41;;;26.11;31.50
71126;BME280;58785;55.566;38.058;2022-08-21T13:16:06;101006.13;;;26.13;31.14
71126;BME280;58785;55.566;38.058;2022-08-21T13:18:35;101007.78;;;26.14;30.52
71126;BME280;58785;55.566;38.058;2022-08-21T13:21:13;101007.97;;;26.19;30.70
71126;BME280;58785;55.566;38.058;2022-08-21T13:23:40;101010.22;;;26.22;30.31
71126;BME280;58785;55.566;38.058;2022-08-21T13:26:17;101009.38;;;26.22;30.35
71126;BME280;58785;55.566;38.058;2022-08-21T13:28:44;101003.78;;;26.17;30.52
71126;BME280;58785;55.566;38.058;2022-08-21T13:31:18;101006.53;;;26.17;30.75
71126;BME280;58785;55.566;38.058;2022-08-21T13:33:44;101000.66;;;26.13;31.05
71126;BME280;58785;55.566;38.058;2022-08-21T13:36:14;100996.13;;;26.07;30.99
71126;BME280;58785;55.566;38.058;2022-08-21T13:38:42;100997.19;;;26.06;31.54
71126;BME280;58785;55.566;38.058;2022-08-21T13:43:45;100992.44;;;25.95;31.62
71126;BME280;58785;55.566;38.058;2022-08-21T13:46:13;100991.19;;;25.97;31.59
71126;BME280;58785;55.566;38.058;2022-08-21T13:48:41;100985.94;;;25.96;31.30
71126;BME280;58785;55.566;38.058;2022-08-21T13:51:08;100985.31;;;25.94;31.49
71126;BME280;58785;55.566;38.058;2022-08-21T13:53:46;100979.84;;;25.94;31.72
71126;BME280;58785;55.566;38.058;2022-08-21T13:56:41;100980.53;;;25.89;32.11
71126;BME280;58785;55.566;38.058;2022-08-21T13:59:07;100973.25;;;25.83;31.85
71126;BME280;58785;55.566;38.058;2022-08-21T14:01:36;100980.00;;;25.81;32.38
71126;BME280;58785;55.566;38.058;2022-08-21T14:04:24;100976.66;;;25.78;32.40
71126;BME280;58785;55.566;38.058;2022-08-21T14:06:51;100973.53;;;25.75;32.42
71126;BME280;58785;55.566;38.058;2022-08-21T14:09:53;100975.66;;;25.73;32.22
71126;BME280;58785;55.566;38.058;2022-08-21T14:12:30;100978.63;;;25.71;32.38
71126;BME280;58785;55.566;38.058;2022-08-21T14:15:04;100968.97;;;25.69;32.48